Time;durP1;ratioP1;P1;durP2;ratioP2;P2;SDS_P1;SDS_P2;PMS_P1;PMS_P2;Temp;Humidity;BMP_temperature;BMP_pressure;BME280_temperature;BME280_humidity;BME280_pressure;Samples;Min_cycle;Max_cycle;Signal;HPM_P1;HPM_P2
2023/06/23 00:01:01;;;;;;;14.75;10.75;;;18.50;99.90;;;;;;5053179;28;20036;-83
2023/06/23 00:03:27;;;;;;;13.70;10.55;;;18.50;99.90;;;;;;5053176;28;20163;-83
2023/06/23 00:05:53;;;;;;;13.75;11.63;;;18.50;99.90;;;;;;5053512;28;20134;-83
2023/06/23 00:08:19;;;;;;;13.50;10.95;;;18.40;99.90;;;;;;5069662;28;20105;-83
2023/06/23 00:10:44;;;;;;;14.13;10.88;;;18.50;99.90;;;;;;5069609;28;20093;-83
2023/06/23 00:13:10;;;;;;;14.02;10.43;;;18.50;99.90;;;;;;5069548;28;20445;-83
2023/06/23 00:15:36;;;;;;;15.13;11.15;;;18.50;99.90;;;;;;5072583;28;20072;-83
2023/06/23 00:18:02;;;;;;;15.75;11.43;;;18.50;99.90;;;;;;5073378;28;20064;-83
2023/06/23 00:20:27;;;;;;;14.48;11.02;;;18.40;99.90;;;;;;5073265;28;20040;-83
2023/06/23 00:22:53;;;;;;;15.18;11.77;;;18.50;99.90;;;;;;5056527;28;20072;-83
2023/06/23 00:25:18;;;;;;;14.05;11.02;;;18.50;99.90;;;;;;5073219;28;20035;-83
2023/06/23 00:27:47;;;;;;;13.55;10.63;;;18.50;99.90;;;;;;5056904;28;20379;-83
2023/06/23 00:30:13;;;;;;;15.40;11.45;;;18.50;99.90;;;;;;5072799;28;20123;-83
2023/06/23 00:32:40;;;;;;;15.27;12.18;;;18.40;99.90;;;;;;5073137;28;20032;-83
2023/06/23 00:35:07;;;;;;;16.27;11.40;;;18.40;99.90;;;;;;5073127;28;20032;-83
2023/06/23 00:37:33;;;;;;;13.60;11.23;;;18.40;99.90;;;;;;5072983;28;20052;-83
2023/06/23 00:39:59;;;;;;;14.48;11.25;;;18.40;99.90;;;;;;5056352;28;20045;-83
2023/06/23 00:42:25;;;;;;;15.98;12.20;;;18.40;99.90;;;;;;5056234;28;20471;-83
2023/06/23 00:44:50;;;;;;;15.30;11.70;;;18.40;99.90;;;;;;5072978;28;20037;-83
2023/06/23 00:47:17;;;;;;;12.93;6.80;;;18.50;99.90;;;;;;5073088;28;20127;-83
2023/06/23 00:49:45;;;;;;;15.15;11.43;;;18.40;99.90;;;;;;5072438;28;20048;-83
2023/06/23 00:52:11;;;;;;;14.43;11.35;;;18.40;99.90;;;;;;5072912;28;20044;-83
2023/06/23 00:54:36;;;;;;;15.95;12.10;;;18.40;99.90;;;;;;5072849;28;20094;-83
2023/06/23 00:57:03;;;;;;;15.30;11.73;;;18.40;99.90;;;;;;5072617;28;20068;-83
2023/06/23 00:59:29;;;;;;;15.38;11.75;;;18.40;99.90;;;;;;5072464;28;20131;-83
2023/06/23 01:01:59;;;;;;;16.10;12.45;;;18.40;99.90;;;;;;5072658;28;20160;-83
2023/06/23 01:04:32;;;;;;;14.35;11.52;;;18.40;99.90;;;;;;5055838;28;20048;-83
2023/06/23 01:07:16;;;;;;;16.92;12.48;;;18.40;99.90;;;;;;5074050;28;20032;-83
2023/06/23 01:10:02;;;;;;;17.45;12.52;;;18.40;99.90;;;;;;5055377;28;20131;-83
2023/06/23 01:12:39;;;;;;;16.45;12.25;;;18.30;99.90;;;;;;5072559;28;20113;-83
2023/06/23 01:15:19;;;;;;;14.13;11.68;;;18.30;99.90;;;;;;5055840;28;20052;-83
2023/06/23 01:18:06;;;;;;;15.88;12.95;;;18.40;99.90;;;;;;5073839;28;20041;-83
2023/06/23 01:20:36;;;;;;;16.08;12.18;;;18.30;99.90;;;;;;5071959;28;20067;-83
2023/06/23 01:23:20;;;;;;;15.82;12.30;;;18.30;99.90;;;;;;5072464;28;20393;-83
2023/06/23 01:26:04;;;;;;;16.25;13.00;;;18.40;99.90;;;;;;5071698;28;20479;-83
2023/06/23 01:28:42;;;;;;;16.38;11.55;;;18.30;99.90;;;;;;5055405;28;20525;-83
2023/06/23 01:31:13;;;;;;;15.25;11.48;;;18.30;99.90;;;;;;5071618;28;20124;-83
2023/06/23 01:33:57;;;;;;;14.27;12.05;;;18.30;99.90;;;;;;5055404;28;20083;-83
2023/06/23 01:36:46;;;;;;;17.23;12.45;;;18.30;99.90;;;;;;5039434;28;20174;-83
2023/06/23 01:39:17;;;;;;;16.85;11.23;;;18.30;99.90;;;;;;5072250;28;20044;-83
2023/06/23 01:41:49;;;;;;;15.93;11.68;;;18.30;99.90;;;;;;5071825;28;20143;-83
2023/06/23 01:44:17;;;;;;;15.70;11.90;;;18.40;99.90;;;;;;5071807;28;20090;-83
2023/06/23 01:46:48;;;;;;;17.67;12.25;;;18.30;99.90;;;;;;5071478;28;20041;-83
2023/06/23 01:49:17;;;;;;;16.73;11.85;;;18.30;99.90;;;;;;5071589;28;20044;-83
2023/06/23 01:51:45;;;;;;;15.02;11.25;;;18.30;99.90;;;;;;5071305;28;20047;-83
2023/06/23 01:54:16;;;;;;;15.60;11.75;;;18.30;99.90;;;;;;5071926;28;20398;-83
2023/06/23 01:56:43;;;;;;;14.02;7.97;;;18.30;99.90;;;;;;5071262;28;20417;-83
2023/06/23 01:59:11;;;;;;;14.05;10.52;;;18.20;99.90;;;;;;5054925;28;20132;-83
2023/06/23 02:01:38;;;;;;;15.07;8.07;;;18.30;99.90;;;;;;5071088;28;20049;-83
2023/06/23 02:04:05;;;;;;;16.35;10.98;;;18.20;99.90;;;;;;5071394;28;20135;-83
2023/06/23 02:06:35;;;;;;;15.95;10.63;;;18.20;99.90;;;;;;5071669;28;20436;-83
2023/06/23 02:09:03;;;;;;;13.43;10.40;;;18.30;99.90;;;;;;5071380;28;20032;-83
2023/06/23 02:11:32;;;;;;;14.98;10.15;;;18.30;99.90;;;;;;5070931;28;20060;-83
2023/06/23 02:13:59;;;;;;;16.02;11.18;;;18.30;99.90;;;;;;5071038;28;20044;-83
2023/06/23 02:16:27;;;;;;;13.10;10.25;;;18.30;99.90;;;;;;5071159;28;20041;-83
2023/06/23 02:18:54;;;;;;;13.80;10.68;;;18.30;99.90;;;;;;5071293;28;20121;-82
2023/06/23 02:21:24;;;;;;;14.60;11.20;;;18.30;99.90;;;;;;5070768;28;20043;-82
2023/06/23 02:23:51;;;;;;;14.15;10.82;;;18.30;99.90;;;;;;5054202;28;20040;-82
2023/06/23 02:26:17;;;;;;;15.15;11.25;;;18.20;99.90;;;;;;5070790;28;20045;-82
2023/06/23 02:28:49;;;;;;;16.10;11.68;;;18.20;99.90;;;;;;5071145;28;20086;-84
2023/06/23 02:31:18;;;;;;;22.92;11.80;;;18.20;99.90;;;;;;5070646;28;20047;-83
2023/06/23 02:33:44;;;;;;;13.63;8.00;;;18.20;99.90;;;;;;5070902;28;20090;-82
2023/06/23 02:36:11;;;;;;;15.63;12.32;;;18.20;99.90;;;;;;5070662;28;20036;-83
2023/06/23 02:38:38;;;;;;;15.50;11.48;;;18.20;99.90;;;;;;5070661;28;20048;-83
2023/06/23 02:41:08;;;;;;;14.70;11.90;;;18.20;99.90;;;;;;5070408;28;20433;-83
2023/06/23 02:43:40;;;;;;;15.63;11.88;;;18.20;99.90;;;;;;5070812;28;20084;-83
2023/06/23 02:46:10;;;;;;;15.57;12.13;;;18.20;99.90;;;;;;5070705;28;20044;-83
2023/06/23 02:48:39;;;;;;;16.15;12.98;;;18.10;99.90;;;;;;5070532;28;20766;-83
2023/06/23 02:51:06;;;;;;;16.08;12.57;;;18.10;99.90;;;;;;5070501;28;20040;-83
2023/06/23 02:53:40;;;;;;;14.20;12.40;;;18.10;99.90;;;;;;5070634;28;20398;-83
2023/06/23 02:56:09;;;;;;;14.95;11.80;;;18.10;99.90;;;;;;5070465;28;20039;-83
2023/06/23 02:58:37;;;;;;;14.23;12.65;;;18.10;99.90;;;;;;5070596;28;20045;-83
2023/06/23 03:01:06;;;;;;;17.63;12.90;;;18.10;99.90;;;;;;5070112;28;20045;-83
2023/06/23 03:03:34;;;;;;;16.20;13.30;;;18.10;99.90;;;;;;5070694;28;20506;-83
2023/06/23 03:06:00;;;;;;;14.75;11.77;;;18.10;99.90;;;;;;5070507;28;20059;-83
2023/06/23 03:08:25;;;;;;;16.98;12.60;;;18.00;99.90;;;;;;5070341;28;20044;-83
2023/06/23 03:10:51;;;;;;;15.40;12.98;;;18.00;99.90;;;;;;5070407;28;20056;-83
2023/06/23 03:13:17;;;;;;;17.55;12.15;;;18.00;99.90;;;;;;5070156;28;20121;-83
2023/06/23 03:15:47;;;;;;;16.40;11.93;;;18.00;99.90;;;;;;5070320;28;20032;-83
2023/06/23 03:18:16;;;;;;;13.88;11.98;;;18.00;99.90;;;;;;5070460;28;20116;-83
2023/06/23 03:20:48;;;;;;;16.23;7.85;;;18.00;99.90;;;;;;5053435;28;20028;-82
2023/06/23 03:23:16;;;;;;;18.95;12.60;;;17.90;99.90;;;;;;5053571;28;20089;-83
2023/06/23 03:25:46;;;;;;;15.90;10.90;;;17.80;99.90;;;;;;5070224;28;20043;-83
2023/06/23 03:28:16;;;;;;;14.80;11.30;;;17.90;99.90;;;;;;5070393;28;20024;-83
2023/06/23 03:30:53;;;;;;;15.45;10.85;;;17.90;99.90;;;;;;5070249;28;20055;-83
2023/06/23 03:33:23;;;;;;;14.52;8.27;;;17.90;99.90;;;;;;5070468;28;20131;-83
2023/06/23 03:35:52;;;;;;;17.05;11.63;;;17.80;99.90;;;;;;5070482;28;20044;-83
2023/06/23 03:38:21;;;;;;;15.38;11.98;;;17.80;99.90;;;;;;5070446;28;20135;-83
2023/06/23 03:40:58;;;;;;;15.32;11.52;;;17.80;99.90;;;;;;5069708;28;20037;-83
2023/06/23 03:43:45;;;;;;;16.67;11.13;;;17.80;99.90;;;;;;5070107;28;20094;-83
2023/06/23 03:46:16;;;;;;;15.88;11.70;;;17.80;99.90;;;;;;5070050;28;20037;-83
2023/06/23 03:48:44;;;;;;;16.05;11.48;;;17.80;99.90;;;;;;5053487;28;20047;-82
2023/06/23 03:51:13;;;;;;;17.52;11.73;;;17.80;99.90;;;;;;5073640;28;20032;-83
2023/06/23 03:53:40;;;;;;;15.23;11.73;;;17.80;99.90;;;;;;5073914;28;20090;-83
2023/06/23 03:56:10;;;;;;;15.43;12.07;;;17.80;99.90;;;;;;5074222;28;20126;-83
2023/06/23 03:58:37;;;;;;;14.57;10.23;;;17.80;99.90;;;;;;5073818;28;20044;-83
2023/06/23 04:01:04;;;;;;;17.35;12.02;;;17.80;99.90;;;;;;5073680;28;20044;-83
2023/06/23 04:03:31;;;;;;;18.08;11.93;;;17.80;99.90;;;;;;5073680;28;20558;-83
2023/06/23 04:05:58;;;;;;;19.13;12.25;;;17.80;99.90;;;;;;5073951;28;20494;-83
2023/06/23 04:08:29;;;;;;;16.45;12.45;;;17.80;99.90;;;;;;5073525;28;20431;-83
2023/06/23 04:10:58;;;;;;;16.30;11.75;;;17.80;99.90;;;;;;5073336;28;20421;-83
2023/06/23 04:13:26;;;;;;;17.80;12.52;;;17.80;99.90;;;;;;5056740;28;20086;-83
2023/06/23 04:15:53;;;;;;;18.80;13.40;;;17.80;99.90;;;;;;5073529;28;20041;-83
2023/06/23 04:18:19;;;;;;;18.35;13.20;;;17.80;99.90;;;;;;5073319;28;20037;-83
2023/06/23 04:20:46;;;;;;;18.55;12.65;;;17.80;99.90;;;;;;5056424;28;20036;-83
2023/06/23 04:23:13;;;;;;;17.05;13.00;;;17.80;99.90;;;;;;5073337;28;20045;-83
2023/06/23 04:25:40;;;;;;;15.60;12.73;;;17.80;99.90;;;;;;5073551;28;20099;-83
2023/06/23 04:28:11;;;;;;;17.75;12.98;;;17.80;99.90;;;;;;5073325;28;20044;-82
2023/06/23 04:30:38;;;;;;;14.63;7.95;;;17.80;99.90;;;;;;5072942;28;20097;-83
2023/06/23 04:33:04;;;;;;;17.52;12.65;;;17.70;99.90;;;;;;5073130;28;20043;-82
2023/06/23 04:35:30;;;;;;;19.15;14.20;;;17.70;99.90;;;;;;5056588;28;20032;-83
2023/06/23 04:38:24;;;;;;;15.63;12.82;;;17.70;99.90;;;;;;5073337;28;20033;-83
2023/06/23 04:40:57;;;;;;;15.73;12.90;;;17.80;99.90;;;;;;5071976;28;20056;-83
2023/06/23 04:43:29;;;;;;;15.82;12.55;;;17.70;99.90;;;;;;5072923;28;20055;-83
2023/06/23 04:45:58;;;;;;;;;;;17.80;99.90;;;;;;5073728;28;20135;-83
2023/06/23 04:48:29;;;;;;;17.13;13.23;;;17.70;99.90;;;;;;5073000;28;19920;-83
2023/06/23 04:50:58;;;;;;;18.23;13.38;;;17.70;99.90;;;;;;5072693;28;20105;-83
2023/06/23 04:53:31;;;;;;;17.58;13.02;;;17.80;99.90;;;;;;5056357;28;20041;-83
2023/06/23 04:56:01;;;;;;;17.42;14.00;;;17.80;99.90;;;;;;5072816;28;20481;-83
2023/06/23 04:58:31;;;;;;;18.70;13.48;;;17.80;99.90;;;;;;5072855;28;20037;-83
2023/06/23 05:00:59;;;;;;;16.23;13.55;;;17.90;99.90;;;;;;5069874;28;20025;-83
2023/06/23 05:03:27;;;;;;;18.17;13.18;;;17.90;99.90;;;;;;5071670;28;20489;-83
2023/06/23 05:05:55;;;;;;;14.65;8.32;;;17.90;99.90;;;;;;5054886;28;20036;-83
2023/06/23 05:08:25;;;;;;;17.10;13.90;;;17.80;99.90;;;;;;5054802;28;20081;-83
2023/06/23 05:10:52;;;;;;;16.05;12.32;;;17.80;99.90;;;;;;5071386;28;20068;-83
2023/06/23 05:13:19;;;;;;;14.55;12.18;;;17.90;99.90;;;;;;5054309;28;20036;-83
2023/06/23 05:15:48;;;;;;;15.82;12.50;;;17.90;99.90;;;;;;5055072;28;20045;-83
2023/06/23 05:18:17;;;;;;;16.98;12.70;;;17.90;99.90;;;;;;5071477;28;20528;-83
2023/06/23 05:20:44;;;;;;;15.90;11.50;;;17.90;99.90;;;;;;5071410;28;20079;-82
2023/06/23 05:23:12;;;;;;;17.10;12.38;;;18.00;99.90;;;;;;5071557;28;20140;-83
2023/06/23 05:25:38;;;;;;;16.63;12.32;;;18.00;99.90;;;;;;5071625;28;20037;-83
2023/06/23 05:28:05;;;;;;;15.88;11.90;;;18.00;99.90;;;;;;5070833;28;20036;-83
2023/06/23 05:30:32;;;;;;;17.55;12.45;;;18.00;99.90;;;;;;5053941;28;20459;-83
2023/06/23 05:33:00;;;;;;;16.83;11.95;;;18.00;99.90;;;;;;5069847;28;20418;-82
2023/06/23 05:35:27;;;;;;;17.98;12.30;;;18.00;99.90;;;;;;5061726;28;20112;-83
2023/06/23 05:37:53;;;;;;;18.80;11.98;;;17.90;99.90;;;;;;5070930;28;20044;-82
2023/06/23 05:40:19;;;;;;;17.02;12.48;;;18.00;99.90;;;;;;5070957;28;20055;-83
2023/06/23 05:42:46;;;;;;;17.73;12.95;;;18.00;99.90;;;;;;5071313;28;20045;-83
2023/06/23 05:45:12;;;;;;;17.10;13.02;;;18.00;99.90;;;;;;5054848;28;20238;-83
2023/06/23 05:47:51;;;;;;;15.40;11.35;;;18.00;99.90;;;;;;5054954;28;20127;-83
2023/06/23 05:50:30;;;;;;;15.75;12.40;;;18.00;99.90;;;;;;5070497;28;20132;-83
2023/06/23 05:53:00;;;;;;;16.55;11.95;;;18.00;99.90;;;;;;5071028;28;20044;-82
2023/06/23 05:55:28;;;;;;;16.75;12.00;;;18.00;99.90;;;;;;5071372;28;20044;-83
2023/06/23 05:58:00;;;;;;;16.80;12.15;;;18.00;99.90;;;;;;5071194;28;20517;-83
2023/06/23 06:00:34;;;;;;;18.55;13.02;;;18.00;99.90;;;;;;5070360;28;20407;-82
2023/06/23 06:03:03;;;;;;;15.35;11.38;;;18.00;99.90;;;;;;5054245;28;20051;-82
2023/06/23 06:05:32;;;;;;;14.70;12.10;;;18.00;99.90;;;;;;5070533;28;20086;-82
2023/06/23 06:07:58;;;;;;;17.08;11.85;;;18.00;99.90;;;;;;5070209;28;20053;-82
2023/06/23 06:10:26;;;;;;;17.42;11.43;;;18.00;99.90;;;;;;5068176;28;20049;-82
2023/06/23 06:12:54;;;;;;;16.55;12.10;;;18.00;99.90;;;;;;5069236;28;20063;-83
2023/06/23 06:15:20;;;;;;;14.45;11.90;;;18.00;99.90;;;;;;5070810;28;20044;-83
2023/06/23 06:17:47;;;;;;;15.52;12.80;;;18.10;99.90;;;;;;5054202;28;20040;-82
2023/06/23 06:20:15;;;;;;;15.40;12.88;;;18.10;99.90;;;;;;5070440;28;20082;-82
2023/06/23 06:22:43;;;;;;;16.30;11.73;;;18.10;99.90;;;;;;5070580;28;20123;-82
2023/06/23 06:25:12;;;;;;;16.60;12.13;;;18.10;99.90;;;;;;5054019;28;20044;-83
2023/06/23 06:27:41;;;;;;;15.00;12.27;;;18.10;99.90;;;;;;5070455;28;20093;-83
2023/06/23 06:30:08;;;;;;;14.63;11.95;;;18.10;99.90;;;;;;5053261;28;20048;-83
2023/06/23 06:32:37;;;;;;;15.25;12.07;;;18.10;99.90;;;;;;5069465;28;20040;-83
2023/06/23 06:35:05;;;;;;;15.13;12.55;;;18.10;99.90;;;;;;5070033;28;20116;-83
2023/06/23 06:37:42;;;;;;;18.17;11.88;;;18.10;99.90;;;;;;5053696;28;20047;-82
2023/06/23 06:40:11;;;;;;;17.17;13.25;;;18.10;99.90;;;;;;5069620;28;20040;-83
2023/06/23 06:42:37;;;;;;;16.33;12.77;;;18.10;99.90;;;;;;5070221;28;20076;-83
2023/06/23 06:45:04;;;;;;;15.98;12.70;;;18.10;99.90;;;;;;5070193;28;20103;-83
2023/06/23 06:47:30;;;;;;;17.45;12.40;;;18.20;99.90;;;;;;5070310;28;20040;-83
2023/06/23 06:49:59;;;;;;;14.63;12.27;;;18.30;99.90;;;;;;5069569;28;20405;-83
2023/06/23 06:52:27;;;;;;;15.73;12.20;;;18.40;99.90;;;;;;5069466;28;20045;-83
2023/06/23 06:54:53;;;;;;;14.85;13.00;;;18.50;99.90;;;;;;5069856;28;20082;-83
2023/06/23 06:57:19;;;;;;;18.65;11.57;;;18.60;99.90;;;;;;5069902;28;20033;-83
2023/06/23 06:59:46;;;;;;;16.45;12.13;;;18.70;99.90;;;;;;5069665;28;20063;-83
2023/06/23 07:02:12;;;;;;;15.38;11.52;;;18.80;99.90;;;;;;5069916;28;20048;-83
2023/06/23 07:04:39;;;;;;;15.15;11.25;;;18.90;99.90;;;;;;5053217;28;20075;-83
2023/06/23 07:07:05;;;;;;;16.15;11.60;;;19.00;99.90;;;;;;5069037;28;20556;-84
2023/06/23 07:09:30;;;;;;;15.80;11.15;;;19.10;99.90;;;;;;5069470;28;20136;-84
2023/06/23 07:11:59;;;;;;;12.82;10.15;;;19.20;99.90;;;;;;5053056;28;20059;-83
2023/06/23 07:14:25;;;;;;;14.05;10.32;;;19.30;99.90;;;;;;5069817;28;20036;-83
2023/06/23 07:16:51;;;;;;;14.38;10.02;;;19.40;99.90;;;;;;5070229;28;20402;-84
2023/06/23 07:19:16;;;;;;;12.85;9.90;;;19.50;99.90;;;;;;5070007;28;20406;-84
2023/06/23 07:21:42;;;;;;;13.63;9.95;;;19.50;99.90;;;;;;5069484;28;20493;-83
2023/06/23 07:24:08;;;;;;;13.45;9.38;;;19.60;99.90;;;;;;5072073;28;20048;-84
2023/06/23 07:26:37;;;;;;;14.80;8.95;;;19.70;99.90;;;;;;5074282;28;20048;-84
2023/06/23 07:29:03;;;;;;;14.73;8.60;;;19.70;99.90;;;;;;5073476;28;20137;-84
2023/06/23 07:31:30;;;;;;;13.73;8.88;;;19.80;99.90;;;;;;5072798;28;20041;-84
2023/06/23 07:33:56;;;;;;;13.07;8.65;;;19.90;99.90;;;;;;5072689;28;20413;-84
2023/06/23 07:36:22;;;;;;;12.32;8.02;;;20.00;99.90;;;;;;5073502;28;20037;-83
2023/06/23 07:38:48;;;;;;;13.80;8.15;;;20.10;99.90;;;;;;5073610;28;20040;-83
2023/06/23 07:41:14;;;;;;;12.80;7.60;;;20.10;99.90;;;;;;5056307;28;20452;-84
2023/06/23 07:43:43;;;;;;;13.00;7.88;;;20.20;99.90;;;;;;5073443;28;20051;-83
2023/06/23 07:46:09;;;;;;;15.35;8.02;;;20.20;99.90;;;;;;5072284;28;20076;-84
2023/06/23 07:48:35;;;;;;;11.65;8.73;;;20.30;99.90;;;;;;5072355;28;20536;-84
2023/06/23 07:51:01;;;;;;;12.35;7.75;;;20.40;99.90;;;;;;5073189;28;20119;-84
2023/06/23 07:53:26;;;;;;;11.98;6.60;;;20.50;99.90;;;;;;5074223;28;20036;-83
2023/06/23 07:55:52;;;;;;;12.68;7.40;;;20.50;99.90;;;;;;5057040;28;20478;-84
2023/06/23 07:58:18;;;;;;;12.38;6.95;;;20.60;99.90;;;;;;5073864;28;20123;-83
2023/06/23 08:00:44;;;;;;;11.07;7.22;;;20.60;99.90;;;;;;5073267;28;20079;-83
2023/06/23 08:03:09;;;;;;;12.48;6.75;;;20.70;99.90;;;;;;5056907;28;20040;-84
2023/06/23 08:05:36;;;;;;;10.45;6.60;;;20.80;99.90;;;;;;5075134;28;20037;-84
2023/06/23 08:08:02;;;;;;;11.60;6.95;;;20.80;99.90;;;;;;5071246;28;20616;-84
2023/06/23 08:10:27;;;;;;;11.38;6.32;;;20.90;99.90;;;;;;5055308;28;20036;-84
2023/06/23 08:12:53;;;;;;;12.15;7.07;;;20.90;99.90;;;;;;5072078;28;20094;-84
2023/06/23 08:15:18;;;;;;;11.77;7.25;;;21.00;99.90;;;;;;5071813;28;20549;-84
2023/06/23 08:17:44;;;;;;;11.25;6.85;;;21.10;99.90;;;;;;5072818;28;20036;-84
2023/06/23 08:20:10;;;;;;;9.73;6.32;;;21.10;99.90;;;;;;5073603;28;20123;-83
2023/06/23 08:22:38;;;;;;;11.15;6.78;;;21.20;99.90;;;;;;5072954;28;20083;-84
2023/06/23 08:25:04;;;;;;;9.57;6.10;;;21.30;99.90;;;;;;5055235;28;20055;-84
2023/06/23 08:27:29;;;;;;;10.27;6.10;;;21.30;99.90;;;;;;5071107;28;20036;-83
2023/06/23 08:29:55;;;;;;;9.73;5.25;;;21.30;99.90;;;;;;5070186;28;20564;-84
2023/06/23 08:32:21;;;;;;;9.40;5.68;;;21.40;99.90;;;;;;5070959;28;20040;-84
2023/06/23 08:34:47;;;;;;;10.70;5.63;;;21.50;99.90;;;;;;5070374;28;20401;-84
2023/06/23 08:37:13;;;;;;;11.95;5.70;;;21.60;99.90;;;;;;5071161;28;20607;-84
2023/06/23 08:39:38;;;;;;;11.55;5.60;;;21.70;99.90;;;;;;5054388;28;20127;-83
2023/06/23 08:42:05;;;;;;;9.02;5.40;;;21.70;99.90;;;;;;5072491;28;20413;-84
2023/06/23 08:44:34;;;;;;;9.82;5.70;;;21.70;99.90;;;;;;5072774;28;20056;-83
2023/06/23 08:47:04;;;;;;;11.05;6.00;;;21.80;99.90;;;;;;5072517;28;20037;-83
2023/06/23 08:49:32;;;;;;;10.38;6.63;;;21.90;99.90;;;;;;5073180;28;20044;-84
2023/06/23 08:51:58;;;;;;;9.65;6.03;;;21.90;99.90;;;;;;5071749;28;20566;-83
2023/06/23 08:54:25;;;;;;;9.60;5.60;;;22.00;99.90;;;;;;5072603;28;20083;-84
2023/06/23 08:56:51;;;;;;;10.23;5.40;;;22.10;99.90;;;;;;5055531;28;20040;-84
2023/06/23 08:59:16;;;;;;;9.18;6.28;;;22.10;99.90;;;;;;5072295;28;20463;-84
2023/06/23 09:01:42;;;;;;;9.35;5.55;;;22.20;99.90;;;;;;5073097;28;20040;-84
2023/06/23 09:04:07;;;;;;;8.50;4.97;;;22.30;99.90;;;;;;5072380;28;20040;-84
2023/06/23 09:06:33;;;;;;;10.63;5.53;;;22.30;99.90;;;;;;5055980;28;20086;-84
2023/06/23 09:08:59;;;;;;;9.43;4.90;;;22.30;99.90;;;;;;5054972;28;20041;-84
2023/06/23 09:11:27;;;;;;;10.27;5.65;;;22.40;99.90;;;;;;5071279;28;20751;-84
2023/06/23 09:13:56;;;;;;;9.48;5.40;;;22.50;99.90;;;;;;5071913;28;20055;-84
2023/06/23 09:16:23;;;;;;;10.25;5.00;;;22.50;99.90;;;;;;5072011;28;20040;-84
2023/06/23 09:18:51;;;;;;;9.75;5.25;;;22.50;99.90;;;;;;5073150;28;20040;-84
2023/06/23 09:21:17;;;;;;;10.20;4.38;;;22.60;99.90;;;;;;5071506;28;20055;-84
2023/06/23 09:24:02;;;;;;;8.30;4.50;;;22.60;99.90;;;;;;5055042;28;20121;-84
2023/06/23 09:26:28;;;;;;;8.27;4.88;;;22.70;99.90;;;;;;5055056;28;20044;-83
2023/06/23 09:29:23;;;;;;;11.15;4.72;;;22.80;99.90;;;;;;5054912;28;20188;-84
2023/06/23 09:31:51;;;;;;;8.93;4.78;;;22.80;99.90;;;;;;5070917;28;20044;-84
2023/06/23 09:34:25;;;;;;;8.10;4.00;;;22.90;99.90;;;;;;5054651;28;20036;-84
2023/06/23 09:37:04;;;;;;;8.40;3.63;;;23.00;99.90;;;;;;5071292;28;20069;-84
2023/06/23 09:39:37;;;;;;;9.00;3.80;;;23.10;99.40;;;;;;5071264;28;20051;-84
2023/06/23 09:42:06;;;;;;;8.25;4.15;;;23.10;98.30;;;;;;5071558;28;20051;-84
2023/06/23 09:44:36;;;;;;;8.05;3.70;;;23.10;96.70;;;;;;5070745;28;20036;-85
2023/06/23 09:47:03;;;;;;;9.45;3.55;;;23.20;94.20;;;;;;5071366;28;20079;-84
2023/06/23 09:49:40;;;;;;;8.30;3.95;;;23.20;94.30;;;;;;5070910;28;20418;-84
2023/06/23 09:52:07;;;;;;;7.05;3.40;;;23.30;94.70;;;;;;5071210;28;20047;-85
2023/06/23 09:54:39;;;;;;;7.22;3.20;;;23.30;93.00;;;;;;5071335;28;20115;-84
2023/06/23 09:57:19;;;;;;;7.63;3.92;;;23.40;92.30;;;;;;5055074;28;20036;-85
2023/06/23 09:59:46;;;;;;;9.90;5.20;;;23.50;91.40;;;;;;5054541;28;20080;-84
2023/06/23 10:02:23;;;;;;;6.93;4.05;;;23.50;91.60;;;;;;5071440;28;20037;-84
2023/06/23 10:04:50;;;;;;;6.78;3.55;;;23.60;92.50;;;;;;5071659;28;20037;-84
2023/06/23 10:07:23;;;;;;;7.22;3.50;;;23.70;91.90;;;;;;5071462;28;20569;-84
2023/06/23 10:09:57;;;;;;;8.95;4.18;;;23.80;92.70;;;;;;5070053;28;20501;-85
2023/06/23 10:12:28;;;;;;;7.70;4.50;;;23.90;90.70;;;;;;5070710;28;20461;-84
2023/06/23 10:14:57;;;;;;;10.48;4.07;;;23.90;90.50;;;;;;5070445;28;20040;-84
2023/06/23 10:17:23;;;;;;;7.60;3.67;;;24.00;88.00;;;;;;5071084;28;20124;-85
2023/06/23 10:19:50;;;;;;;7.88;4.07;;;24.00;86.60;;;;;;5069778;28;20040;-84
2023/06/23 10:22:18;;;;;;;8.95;4.10;;;24.10;87.80;;;;;;5071961;28;20503;-84
2023/06/23 10:24:50;;;;;;;9.02;3.88;;;24.20;89.00;;;;;;5070853;28;20036;-84
2023/06/23 10:27:22;;;;;;;7.90;3.75;;;24.30;89.70;;;;;;5070694;28;20399;-84
2023/06/23 10:29:52;;;;;;;7.30;4.20;;;24.40;86.70;;;;;;5069178;28;20265;-85
2023/06/23 10:32:22;;;;;;;7.45;3.85;;;24.40;87.30;;;;;;5068722;28;20037;-84
2023/06/23 10:34:50;;;;;;;9.02;4.10;;;24.50;85.00;;;;;;5051231;28;20071;-84
2023/06/23 10:37:23;;;;;;;7.75;3.78;;;24.50;85.60;;;;;;5069710;28;20051;-85
2023/06/23 10:39:57;;;;;;;7.32;4.03;;;24.70;86.30;;;;;;5084578;28;20101;-85
2023/06/23 10:42:27;;;;;;;8.20;4.70;;;24.70;86.90;;;;;;5070001;28;20094;-84
2023/06/23 10:44:54;;;;;;;8.57;4.60;;;24.80;87.40;;;;;;5070532;28;20047;-84
2023/06/23 10:47:19;;;;;;;9.48;4.65;;;24.90;86.50;;;;;;5071745;28;20438;-84
2023/06/23 10:49:45;;;;;;;9.27;4.40;;;25.00;85.50;;;;;;5069711;28;20040;-84
2023/06/23 10:52:12;;;;;;;7.30;4.13;;;25.00;83.10;;;;;;5053132;28;20044;-85
2023/06/23 10:54:38;;;;;;;7.50;3.80;;;25.00;84.30;;;;;;5069471;28;20122;-84
2023/06/23 10:57:12;;;;;;;7.50;3.97;;;25.00;83.70;;;;;;5070078;28;20067;-84
2023/06/23 10:59:57;;;;;;;7.68;3.30;;;25.20;82.50;;;;;;5069244;28;20520;-84
2023/06/23 11:02:23;;;;;;;8.27;3.70;;;25.20;80.40;;;;;;5069939;28;20045;-85
2023/06/23 11:04:55;;;;;;;7.55;3.60;;;25.20;77.40;;;;;;5052680;28;20039;-84
2023/06/23 11:07:21;;;;;;;10.27;4.25;;;25.20;77.30;;;;;;5067349;28;20037;-84
2023/06/23 11:09:54;;;;;;;7.80;3.90;;;25.30;77.30;;;;;;5068984;28;20037;-84
2023/06/23 11:12:36;;;;;;;8.07;5.30;;;25.40;78.50;;;;;;5064710;28;20037;-85
2023/06/23 11:15:08;;;;;;;7.32;4.07;;;25.60;79.50;;;;;;5051654;28;20024;-85
2023/06/23 11:17:47;;;;;;;;;;;25.70;79.30;;;;;;5053024;28;20119;-85
2023/06/23 11:20:27;;;;;;;7.82;3.38;;;25.80;79.80;;;;;;5052545;28;19962;-85
2023/06/23 11:23:00;;;;;;;7.25;3.50;;;25.90;76.40;;;;;;5069240;28;20503;-85
2023/06/23 11:25:50;;;;;;;8.88;3.30;;;25.90;75.00;;;;;;5053201;28;20036;-84
2023/06/23 11:28:36;;;;;;;8.40;3.40;;;25.90;75.70;;;;;;5069069;28;20511;-85
2023/06/23 11:31:24;;;;;;;8.60;4.00;;;26.10;73.20;;;;;;5067516;28;20123;-84
2023/06/23 11:34:00;;;;;;;8.27;3.40;;;25.90;70.70;;;;;;5068983;28;20441;-85
2023/06/23 11:36:35;;;;;;;7.30;3.42;;;26.00;73.90;;;;;;5066714;28;20043;-85
2023/06/23 11:39:01;;;;;;;6.50;3.40;;;26.00;74.60;;;;;;5068624;28;20087;-85
2023/06/23 11:41:31;;;;;;;8.52;4.20;;;26.20;74.40;;;;;;5068931;28;20119;-85
2023/06/23 11:44:02;;;;;;;10.93;3.50;;;26.30;74.60;;;;;;5069514;28;20090;-85
2023/06/23 11:46:31;;;;;;;9.98;4.32;;;26.40;74.60;;;;;;5052611;28;20033;-85
2023/06/23 11:48:57;;;;;;;9.27;3.38;;;26.40;75.80;;;;;;5069252;28;20047;-85
2023/06/23 11:51:22;;;;;;;7.90;3.30;;;26.50;75.70;;;;;;5070283;28;20037;-85
2023/06/23 11:53:53;;;;;;;7.70;3.22;;;26.70;75.10;;;;;;5069626;28;20090;-85
2023/06/23 11:56:20;;;;;;;8.90;3.70;;;26.90;74.20;;;;;;5069648;28;20037;-86
2023/06/23 11:58:55;;;;;;;9.23;3.17;;;27.00;73.30;;;;;;5069217;28;20166;-85
2023/06/23 12:01:21;;;;;;;6.72;3.03;;;27.20;73.10;;;;;;5052094;28;20079;-85
2023/06/23 12:03:47;;;;;;;7.10;3.03;;;27.30;70.90;;;;;;5069895;28;20068;-85
2023/06/23 12:06:15;;;;;;;7.57;3.38;;;27.30;70.60;;;;;;5069606;28;20040;-85
2023/06/23 12:08:41;;;;;;;8.45;3.08;;;27.40;69.00;;;;;;5052572;28;20028;-85
2023/06/23 12:11:08;;;;;;;6.93;2.97;;;27.20;68.30;;;;;;5070255;28;20039;-86
2023/06/23 12:13:37;;;;;;;13.07;4.55;;;27.20;68.50;;;;;;5072660;28;20516;-85
2023/06/23 12:16:02;;;;;;;8.45;3.10;;;27.10;67.10;;;;;;5073829;28;20393;-85
2023/06/23 12:18:28;;;;;;;15.35;5.28;;;26.90;69.90;;;;;;5073043;28;20033;-85
2023/06/23 12:20:54;;;;;;;9.07;3.05;;;27.10;70.80;;;;;;5074353;28;20127;-85
2023/06/23 12:23:19;;;;;;;8.10;2.97;;;27.20;68.90;;;;;;5056921;28;20043;-86
2023/06/23 12:25:49;;;;;;;13.15;4.28;;;27.20;68.10;;;;;;5073050;28;20102;-86
2023/06/23 12:28:17;;;;;;;10.32;4.25;;;27.30;67.90;;;;;;5070385;28;20049;-85
2023/06/23 12:30:44;;;;;;;6.75;2.83;;;27.30;67.40;;;;;;5071761;28;20502;-85
2023/06/23 12:33:20;;;;;;;7.43;2.88;;;27.30;67.20;;;;;;5072834;28;20070;-85
2023/06/23 12:36:07;;;;;;;6.32;2.95;;;27.40;66.10;;;;;;5056205;28;20523;-85
2023/06/23 12:38:34;;;;;;;8.88;2.80;;;27.50;67.80;;;;;;5055475;28;20471;-86
2023/06/23 12:41:16;;;;;;;6.80;2.60;;;27.50;65.30;;;;;;5055515;28;20043;-85
2023/06/23 12:43:42;;;;;;;8.40;2.72;;;27.50;65.30;;;;;;5072343;28;20033;-85
2023/06/23 12:46:11;;;;;;;7.93;2.92;;;27.60;65.20;;;;;;5072769;28;20036;-86